Hlavní strana
METAR-TAF:

METAR-TAF

Letiště :

Čeljabinsk, Rusko

zeměpisná šířka: 55-10N, zeměpisná délka: 061-24E, výška: 234 m

Aktuální stav počasí

Zpráva byla vytvořena před 24 minutami, v 14:00 UTC
Západní vítr 6 kt
Teplota 6°C
Vlhkost vzduchu 93%
Tlak 1011 hPa
Viditelnost: 5000 m
Polojasno ve výšce 2000 ft
kouřmo

METAR: USCC 191400Z 26003MPS 5000 BR SCT020 06/05 Q1011 R27/250055 NOSIG RMK QFE738

Čas: 19:24 (14:24 UTC)

Předpověď počasí

Zpráva byla vytvořena před 3 hodinami a 24 minutami, v 11:00 UTC
Předpověď platná od 19 v 12 UTC do 20 v 12 UTC
Západojihozápadní vítr 6 kt s nárazy do 16 kt
Viditelnost: 5000 m
Oblačno až skoro zataženo ve výšce 1100 ft, Cumulonimbus.
kouřmo, kouř
Dočasný
od 19 v 12 UTC do 20 v 12 UTC
Západní vítr 10 kt s nárazy do 29 kt
Viditelnost: 3100 m
Oblačno až skoro zataženo ve výšce 700 ft, Cumulonimbus.
slabé dešťové přeháňky

TAF: USCC 191100Z 1912/2012 24003G08MPS 5000 BR FU BKN011CB TEMPO 1912/2012 27005G15MPS 3100 -SHRA BKN007CB

Stav a předpovědi počasí z více než 4 000 letišť (zprávy METAR a TAF).

Červené a žluté tečky na mapě představují dostupné meteorologické stanice.

Když kurzor umístíte na tečku, zobrazí se název stanice.

Pak kliknutím zobrazíte stav a předpověď počasí.

Chcete-li změnit mapu, kliknutím na zelené tlačítko se znaménkem +mapu přiblížíte, kliknutím na zelené tlačítko se znaménkem – mapu oddálíte a kliknutím na zelené šipky přejdete na sousední mapy.


METAR-TAF: